createdAt,value
2023-02-19T00:00:05.654Z,8.45
2023-02-19T00:00:38.215Z,10.70
2023-02-19T00:01:16.234Z,9.25
2023-02-19T00:01:48.299Z,9.07
2023-02-19T00:02:20.076Z,9.23
2023-02-19T00:02:52.844Z,7.90
2023-02-19T00:03:24.714Z,9.30
2023-02-19T00:04:02.136Z,9.18
2023-02-19T00:04:33.814Z,10.63
2023-02-19T00:05:05.817Z,8.45
2023-02-19T00:05:37.425Z,8.80
2023-02-19T00:06:11.275Z,9.27
2023-02-19T00:06:44.007Z,8.23
2023-02-19T00:07:15.620Z,8.52
2023-02-19T00:07:47.213Z,8.77
2023-02-19T00:08:18.880Z,9.20
2023-02-19T00:08:50.843Z,8.90
2023-02-19T00:09:22.545Z,9.68
2023-02-19T00:09:54.166Z,9.02
2023-02-19T00:10:25.842Z,11.30
2023-02-19T00:11:08.757Z,9.45
2023-02-19T00:11:40.935Z,10.07
2023-02-19T00:12:12.626Z,8.50
2023-02-19T00:12:44.227Z,9.10
2023-02-19T00:13:15.835Z,9.88
2023-02-19T00:13:49.988Z,10.10
2023-02-19T00:14:21.995Z,10.27
2023-02-19T00:14:55.329Z,10.10
2023-02-19T00:15:27.112Z,9.95
2023-02-19T00:15:58.830Z,8.20
2023-02-19T00:16:40.084Z,9.52
2023-02-19T00:17:11.724Z,9.15
2023-02-19T00:17:43.331Z,9.37
2023-02-19T00:18:14.936Z,8.93
2023-02-19T00:18:47.101Z,9.25
2023-02-19T00:19:20.634Z,8.43
2023-02-19T00:19:52.305Z,9.48
2023-02-19T00:20:23.894Z,8.95
2023-02-19T00:20:56.744Z,10.40
2023-02-19T00:21:29.478Z,10.60
2023-02-19T00:22:01.298Z,9.82
2023-02-19T00:22:32.880Z,9.35
2023-02-19T00:23:04.484Z,9.80
2023-02-19T00:23:36.358Z,8.02
2023-02-19T00:24:08.703Z,9.57
2023-02-19T00:24:40.397Z,8.35
2023-02-19T00:25:12.012Z,8.80
2023-02-19T00:25:43.725Z,7.80
2023-02-19T00:26:18.472Z,8.20
2023-02-19T00:26:50.588Z,8.85
2023-02-19T00:27:22.238Z,10.15
2023-02-19T00:27:53.861Z,9.50
2023-02-19T00:28:25.448Z,8.02
2023-02-19T00:28:58.055Z,7.53
2023-02-19T00:29:29.863Z,8.13
2023-02-19T00:30:01.650Z,8.40
2023-02-19T00:30:33.410Z,7.70
2023-02-19T00:31:20.806Z,8.77
2023-02-19T00:31:52.552Z,7.20
2023-02-19T00:32:24.217Z,7.07
2023-02-19T00:32:55.806Z,8.23
2023-02-19T00:33:29.657Z,7.18
2023-02-19T00:34:04.022Z,7.13
2023-02-19T00:34:36.451Z,9.23
2023-02-19T00:35:08.258Z,8.48
2023-02-19T00:35:39.907Z,8.50
2023-02-19T00:36:12.335Z,6.60
2023-02-19T00:36:44.066Z,7.38
2023-02-19T00:37:15.748Z,8.10
2023-02-19T00:37:47.390Z,8.43
2023-02-19T00:38:19.359Z,7.22
2023-02-19T00:38:51.525Z,7.68
2023-02-19T00:39:23.166Z,7.22
2023-02-19T00:39:54.895Z,8.20
2023-02-19T00:40:26.550Z,8.30
2023-02-19T00:41:01.078Z,9.70
2023-02-19T00:41:33.047Z,7.68
2023-02-19T00:42:04.925Z,7.35
2023-02-19T00:42:36.525Z,7.63
2023-02-19T00:43:08.174Z,7.53
2023-02-19T00:43:39.910Z,8.68
2023-02-19T00:44:12.557Z,8.38
2023-02-19T00:44:44.206Z,7.10
2023-02-19T00:45:15.767Z,7.65
2023-02-19T00:45:47.440Z,8.10
2023-02-19T00:46:25.094Z,7.18
2023-02-19T00:46:56.870Z,8.10
2023-02-19T00:47:28.498Z,8.10
2023-02-19T00:48:00.137Z,7.32
2023-02-19T00:48:31.982Z,8.15
2023-02-19T00:49:05.486Z,6.68
2023-02-19T00:49:37.186Z,7.60
2023-02-19T00:50:09.314Z,7.93
2023-02-19T00:50:40.967Z,7.75
2023-02-19T00:51:13.211Z,7.55
2023-02-19T00:51:44.867Z,8.23
2023-02-19T00:52:16.615Z,8.30
2023-02-19T00:52:48.265Z,6.88
2023-02-19T00:53:19.894Z,8.88
2023-02-19T00:53:51.560Z,6.55
2023-02-19T00:54:23.373Z,9.00
2023-02-19T00:54:54.940Z,7.63
2023-02-19T00:55:26.623Z,7.38
2023-02-19T00:55:58.252Z,7.80
2023-02-19T00:56:29.930Z,8.50
2023-02-19T00:57:01.697Z,7.80
2023-02-19T00:57:33.679Z,7.25
2023-02-19T00:58:05.401Z,7.63
2023-02-19T00:58:37.139Z,7.57
2023-02-19T00:59:09.054Z,6.43
2023-02-19T00:59:40.765Z,7.35
2023-02-19T01:00:12.969Z,7.90
2023-02-19T01:00:44.591Z,7.75
2023-02-19T01:01:17.061Z,6.85
2023-02-19T01:01:49.822Z,7.38
2023-02-19T01:02:21.785Z,7.10
2023-02-19T01:02:53.402Z,7.32
2023-02-19T01:03:25.196Z,8.20
2023-02-19T01:03:57.195Z,6.95
2023-02-19T01:04:28.844Z,7.07
2023-02-19T01:05:00.630Z,7.80
2023-02-19T01:05:32.284Z,6.97
2023-02-19T01:06:05.615Z,6.57
2023-02-19T01:06:37.554Z,6.75
2023-02-19T01:07:10.183Z,6.95
2023-02-19T01:07:41.795Z,8.82
2023-02-19T01:08:13.466Z,5.78
2023-02-19T01:08:45.727Z,6.22
2023-02-19T01:09:17.436Z,6.05
2023-02-19T01:09:49.120Z,7.38
2023-02-19T01:10:20.806Z,6.25
2023-02-19T01:10:52.490Z,6.57
2023-02-19T01:11:24.420Z,7.00
2023-02-19T01:11:56.024Z,6.22
2023-02-19T01:12:28.240Z,6.80
2023-02-19T01:12:59.866Z,7.30
2023-02-19T01:13:32.321Z,6.53
2023-02-19T01:14:05.045Z,6.63
2023-02-19T01:14:36.780Z,6.82
2023-02-19T01:15:08.930Z,7.05
2023-02-19T01:15:40.645Z,7.00
2023-02-19T01:16:20.799Z,7.63
2023-02-19T01:16:52.460Z,6.65
2023-02-19T01:17:24.479Z,6.57
2023-02-19T01:17:56.050Z,7.13
2023-02-19T01:18:27.609Z,7.45
2023-02-19T01:18:59.252Z,6.70
2023-02-19T01:19:30.969Z,6.30
2023-02-19T01:20:02.612Z,7.40
2023-02-19T01:20:34.524Z,6.30
2023-02-19T01:21:12.763Z,6.88
2023-02-19T01:21:44.381Z,6.28
2023-02-19T01:22:16.830Z,7.03
2023-02-19T01:22:48.421Z,7.28
2023-02-19T01:23:20.001Z,6.40
2023-02-19T01:23:52.993Z,6.68
2023-02-19T01:24:24.609Z,7.07
2023-02-19T01:24:56.250Z,6.82
2023-02-19T01:25:27.886Z,8.50
2023-02-19T01:25:59.474Z,6.13
2023-02-19T01:26:32.499Z,6.32
2023-02-19T01:27:04.126Z,6.82
2023-02-19T01:27:35.794Z,8.05
2023-02-19T01:28:08.364Z,6.45
2023-02-19T01:28:40.311Z,7.05
2023-02-19T01:29:11.925Z,6.70
2023-02-19T01:29:43.689Z,7.55
2023-02-19T01:30:15.435Z,7.53
2023-02-19T01:30:47.180Z,8.05
2023-02-19T01:31:24.170Z,6.63
2023-02-19T01:31:56.076Z,5.78
2023-02-19T01:32:28.190Z,7.47
2023-02-19T01:32:59.764Z,6.63
2023-02-19T01:33:31.977Z,6.22
2023-02-19T01:34:04.768Z,6.22
2023-02-19T01:34:36.325Z,5.75
2023-02-19T01:35:08.184Z,5.38
2023-02-19T01:35:40.609Z,7.25
2023-02-19T01:36:12.646Z,6.93
2023-02-19T01:36:44.399Z,6.30
2023-02-19T01:37:16.399Z,6.03
2023-02-19T01:37:48.018Z,5.80
2023-02-19T01:38:19.646Z,5.82
2023-02-19T01:38:51.436Z,6.35
2023-02-19T01:39:23.066Z,6.90
2023-02-19T01:39:54.813Z,7.05
2023-02-19T01:40:26.941Z,5.60
2023-02-19T01:41:01.899Z,5.75
2023-02-19T01:41:38.076Z,5.85
2023-02-19T01:42:16.529Z,5.60
2023-02-19T01:42:48.529Z,6.15
2023-02-19T01:43:20.196Z,7.32
2023-02-19T01:44:17.173Z,6.25
2023-02-19T01:44:48.818Z,5.68
2023-02-19T01:45:29.315Z,5.65
2023-02-19T01:46:01.468Z,6.03
2023-02-19T01:46:38.057Z,6.07
2023-02-19T01:47:09.763Z,6.18
2023-02-19T01:47:41.452Z,5.57
2023-02-19T01:48:21.076Z,7.28
2023-02-19T01:48:54.226Z,6.90
2023-02-19T01:49:31.848Z,5.85
2023-02-19T01:50:03.487Z,5.82
2023-02-19T01:50:46.177Z,5.95
2023-02-19T01:51:19.283Z,5.80
2023-02-19T01:51:58.405Z,5.88
2023-02-19T01:52:34.430Z,7.40
2023-02-19T01:53:08.964Z,5.90
2023-02-19T01:53:45.391Z,6.20
2023-02-19T01:54:19.857Z,6.50
2023-02-19T01:54:52.259Z,6.40
2023-02-19T01:55:24.271Z,7.07
2023-02-19T01:55:59.992Z,6.07
2023-02-19T01:56:34.241Z,5.78
2023-02-19T01:57:12.155Z,6.93
2023-02-19T01:57:48.330Z,6.28
2023-02-19T01:58:20.178Z,5.97
2023-02-19T01:58:52.226Z,6.80
2023-02-19T01:59:23.941Z,6.78
2023-02-19T02:00:01.870Z,6.45
2023-02-19T02:00:34.196Z,6.03
2023-02-19T02:01:07.773Z,6.95
2023-02-19T02:01:40.275Z,7.43
2023-02-19T02:02:12.461Z,6.28
2023-02-19T02:02:48.865Z,6.97
2023-02-19T02:03:21.127Z,6.78
2023-02-19T02:03:53.456Z,6.38
2023-02-19T02:04:25.105Z,7.38
2023-02-19T02:05:00.215Z,6.10
2023-02-19T02:05:57.625Z,6.35
2023-02-19T02:06:34.388Z,5.85
2023-02-19T02:07:29.869Z,6.05
2023-02-19T02:08:21.720Z,6.85
2023-02-19T02:09:14.610Z,5.72
2023-02-19T02:10:12.601Z,6.28
2023-02-19T02:10:44.627Z,5.68
2023-02-19T02:11:17.184Z,6.68
2023-02-19T02:11:51.797Z,5.90
2023-02-19T02:12:23.435Z,5.60
2023-02-19T02:12:57.906Z,5.70
2023-02-19T02:13:30.165Z,6.00
2023-02-19T02:14:03.142Z,6.13
2023-02-19T02:14:37.869Z,6.43
2023-02-19T02:15:10.130Z,6.85
2023-02-19T02:16:10.989Z,5.85
2023-02-19T02:16:53.292Z,7.57
2023-02-19T02:17:28.955Z,5.75
2023-02-19T02:18:08.788Z,6.30
2023-02-19T02:18:58.228Z,5.20
2023-02-19T02:20:00.722Z,6.32
2023-02-19T02:20:44.710Z,5.10
2023-02-19T02:21:53.466Z,5.65
2023-02-19T02:22:58.122Z,5.82
2023-02-19T02:23:56.276Z,6.15
2023-02-19T02:24:56.875Z,5.45
2023-02-19T02:25:34.679Z,6.30
2023-02-19T02:26:31.349Z,4.63
2023-02-19T02:27:16.665Z,6.07
2023-02-19T02:27:54.267Z,6.20
2023-02-19T02:28:36.736Z,5.57
2023-02-19T02:29:29.999Z,4.95
2023-02-19T02:30:30.306Z,6.32
2023-02-19T02:31:42.625Z,5.97
2023-02-19T02:32:21.500Z,5.00
2023-02-19T02:33:25.411Z,5.63
2023-02-19T02:34:04.086Z,5.28
2023-02-19T02:34:48.732Z,5.15
2023-02-19T02:35:34.755Z,5.40
2023-02-19T02:36:24.219Z,6.15
2023-02-19T02:36:56.899Z,5.65
2023-02-19T02:37:33.377Z,4.60
2023-02-19T02:38:10.187Z,4.95
2023-02-19T02:38:44.151Z,6.32
2023-02-19T02:39:19.621Z,4.85
2023-02-19T02:39:52.532Z,5.20
2023-02-19T02:40:24.261Z,6.07
2023-02-19T02:40:56.952Z,5.22
2023-02-19T02:41:28.933Z,4.93
2023-02-19T02:42:19.077Z,4.90
2023-02-19T02:42:50.662Z,6.35
2023-02-19T02:43:22.667Z,5.38
2023-02-19T02:43:54.336Z,6.50
2023-02-19T02:44:35.187Z,8.00
2023-02-19T02:45:36.896Z,4.45
2023-02-19T02:46:13.610Z,5.55
2023-02-19T02:46:46.466Z,6.63
2023-02-19T02:47:36.703Z,5.78
2023-02-19T02:48:17.756Z,7.47
2023-02-19T02:48:55.508Z,4.55
2023-02-19T02:49:27.460Z,4.20
2023-02-19T02:50:06.004Z,5.13
2023-02-19T02:51:13.925Z,4.60
2023-02-19T02:51:50.828Z,9.65
2023-02-19T02:52:45.942Z,10.57
2023-02-19T02:53:46.971Z,7.07
2023-02-19T02:54:45.081Z,4.85
2023-02-19T02:55:16.955Z,5.20
2023-02-19T02:55:51.914Z,4.75
2023-02-19T02:56:25.719Z,4.25
2023-02-19T02:56:58.925Z,4.43
2023-02-19T02:57:30.552Z,5.75
2023-02-19T02:58:03.094Z,4.95
2023-02-19T02:58:35.410Z,5.68
2023-02-19T02:59:10.142Z,7.35
2023-02-19T02:59:42.994Z,4.70
2023-02-19T03:00:15.567Z,4.80
2023-02-19T03:01:11.767Z,4.68
2023-02-19T03:02:06.749Z,3.72
2023-02-19T03:02:40.169Z,4.03
2023-02-19T03:03:13.309Z,5.50
2023-02-19T03:03:48.124Z,4.60
2023-02-19T03:04:24.079Z,4.38
2023-02-19T03:05:28.331Z,3.70
2023-02-19T03:06:04.903Z,5.05
2023-02-19T03:06:38.176Z,4.30
2023-02-19T03:07:11.025Z,5.72
2023-02-19T03:08:17.162Z,6.15
2023-02-19T03:08:58.108Z,4.50
2023-02-19T03:09:40.741Z,4.13
2023-02-19T03:10:17.275Z,4.63
2023-02-19T03:10:56.413Z,4.35
2023-02-19T03:11:49.491Z,4.28
2023-02-19T03:12:40.938Z,4.45
2023-02-19T03:13:46.758Z,4.40
2023-02-19T03:14:41.196Z,6.00
2023-02-19T03:15:33.113Z,5.32
2023-02-19T03:16:32.655Z,4.68
2023-02-19T03:17:48.270Z,5.97
2023-02-19T03:18:40.306Z,5.30
2023-02-19T03:19:21.716Z,5.93
2023-02-19T03:19:56.746Z,7.22
2023-02-19T03:20:31.395Z,5.05
2023-02-19T03:21:05.486Z,5.00
2023-02-19T03:21:41.439Z,5.40
2023-02-19T03:22:20.394Z,7.05
2023-02-19T03:22:55.838Z,7.22
2023-02-19T03:23:49.870Z,6.80
2023-02-19T03:24:45.638Z,6.30
2023-02-19T03:25:39.587Z,4.68
2023-02-19T03:26:12.750Z,6.57
2023-02-19T03:26:46.700Z,6.85
2023-02-19T03:27:21.136Z,6.05
2023-02-19T03:27:57.496Z,4.75
2023-02-19T03:28:51.479Z,4.97
2023-02-19T03:29:26.418Z,5.18
2023-02-19T03:30:01.890Z,4.75
2023-02-19T03:30:37.876Z,6.70
2023-02-19T03:31:13.946Z,5.82
2023-02-19T03:31:47.092Z,4.88
2023-02-19T03:32:28.989Z,5.25
2023-02-19T03:33:32.607Z,4.80
2023-02-19T03:34:10.371Z,4.40
2023-02-19T03:34:47.936Z,4.72
2023-02-19T03:35:23.492Z,5.60
2023-02-19T03:36:02.444Z,4.10
2023-02-19T03:36:40.877Z,4.05
2023-02-19T03:37:37.061Z,4.80
2023-02-19T03:38:18.753Z,4.18
2023-02-19T03:38:59.663Z,4.00
2023-02-19T03:39:32.189Z,4.60
2023-02-19T03:40:04.628Z,3.92
2023-02-19T03:40:50.538Z,4.53
2023-02-19T03:41:45.552Z,4.68
2023-02-19T03:42:27.890Z,5.72
2023-02-19T03:43:08.418Z,4.18
2023-02-19T03:44:07.031Z,4.95
2023-02-19T03:45:13.933Z,5.30
2023-02-19T03:45:53.569Z,3.85
2023-02-19T03:47:03.530Z,3.60
2023-02-19T03:48:12.154Z,4.40
2023-02-19T03:48:57.481Z,4.57
2023-02-19T03:50:00.154Z,4.72
2023-02-19T03:50:46.843Z,3.95
2023-02-19T03:51:28.958Z,4.05
2023-02-19T03:52:00.553Z,4.50
2023-02-19T03:52:53.163Z,4.10
2023-02-19T03:53:38.322Z,3.70
2023-02-19T03:54:21.420Z,4.22
2023-02-19T03:55:01.946Z,3.80
2023-02-19T03:55:41.528Z,4.25
2023-02-19T03:56:26.620Z,3.95
2023-02-19T03:57:08.602Z,4.13
2023-02-19T03:58:04.956Z,3.95
2023-02-19T03:58:49.408Z,4.10
2023-02-19T03:59:32.541Z,3.85
2023-02-19T04:00:13.174Z,3.70
2023-02-19T04:01:00.459Z,3.50
2023-02-19T04:01:43.454Z,4.15
2023-02-19T04:02:24.849Z,3.78
2023-02-19T04:03:11.700Z,5.32
2023-02-19T04:03:46.322Z,3.50
2023-02-19T04:04:29.261Z,4.10
2023-02-19T04:05:08.173Z,3.47
2023-02-19T04:05:47.295Z,3.75
2023-02-19T04:06:25.542Z,3.83
2023-02-19T04:06:58.388Z,4.00
2023-02-19T04:07:35.443Z,3.25
2023-02-19T04:08:18.458Z,3.88
2023-02-19T04:08:54.728Z,3.53
2023-02-19T04:09:31.799Z,3.70
2023-02-19T04:10:04.932Z,3.85
2023-02-19T04:10:38.267Z,3.92
2023-02-19T04:11:11.461Z,5.10
2023-02-19T04:11:43.940Z,4.70
2023-02-19T04:12:16.912Z,3.97
2023-02-19T04:13:02.771Z,4.53
2023-02-19T04:13:45.943Z,4.60
2023-02-19T04:14:39.585Z,4.00
2023-02-19T04:15:16.239Z,3.88
2023-02-19T04:15:51.198Z,3.60
2023-02-19T04:16:28.093Z,3.83
2023-02-19T04:17:03.392Z,4.07
2023-02-19T04:17:41.394Z,4.38
2023-02-19T04:18:17.906Z,4.00
2023-02-19T04:18:54.717Z,3.90
2023-02-19T04:19:28.920Z,4.18
2023-02-19T04:20:05.519Z,4.53
2023-02-19T04:20:42.251Z,5.15
2023-02-19T04:21:15.340Z,4.15
2023-02-19T04:21:48.510Z,4.82
2023-02-19T04:22:21.988Z,4.25
2023-02-19T04:22:53.825Z,4.75
2023-02-19T04:23:28.271Z,4.10
2023-02-19T04:24:06.572Z,4.60
2023-02-19T04:24:43.242Z,4.45
2023-02-19T04:25:14.868Z,4.07
2023-02-19T04:25:52.459Z,4.00
2023-02-19T04:26:24.425Z,4.63
2023-02-19T04:26:56.299Z,5.93
2023-02-19T04:27:27.899Z,5.07
2023-02-19T04:27:59.691Z,4.57
2023-02-19T04:28:31.399Z,5.03
2023-02-19T04:29:03.167Z,6.80
2023-02-19T04:29:34.914Z,5.82
2023-02-19T04:30:09.447Z,5.22
2023-02-19T04:30:41.444Z,4.88
2023-02-19T04:31:13.976Z,5.15
2023-02-19T04:31:45.842Z,4.80
2023-02-19T04:32:17.535Z,4.85
2023-02-19T04:32:49.285Z,4.75
2023-02-19T04:33:20.981Z,4.43
2023-02-19T04:33:52.685Z,4.22
2023-02-19T04:34:24.942Z,5.20
2023-02-19T04:34:56.566Z,4.70
2023-02-19T04:35:28.194Z,5.65
2023-02-19T04:35:59.984Z,4.28
2023-02-19T04:36:32.308Z,5.55
2023-02-19T04:37:04.149Z,4.10
2023-02-19T04:37:35.728Z,5.93
2023-02-19T04:38:07.795Z,4.07
2023-02-19T04:38:39.467Z,4.32
2023-02-19T04:39:11.150Z,4.90
2023-02-19T04:39:42.769Z,4.45
2023-02-19T04:40:14.359Z,5.28
2023-02-19T04:40:46.907Z,4.50
2023-02-19T04:41:18.544Z,4.50
2023-02-19T04:41:50.248Z,4.82
2023-02-19T04:42:21.828Z,4.45
2023-02-19T04:42:53.634Z,5.00
2023-02-19T04:43:25.234Z,5.20
2023-02-19T04:43:56.895Z,3.92
2023-02-19T04:44:28.686Z,4.40
2023-02-19T04:45:00.367Z,5.75
2023-02-19T04:45:31.971Z,4.75
2023-02-19T04:46:03.754Z,5.15
2023-02-19T04:46:35.379Z,5.28
2023-02-19T04:47:06.987Z,4.30
2023-02-19T04:47:38.600Z,4.50
2023-02-19T04:48:10.608Z,5.30
2023-02-19T04:48:43.172Z,4.88
2023-02-19T04:49:14.918Z,4.75
2023-02-19T04:49:46.665Z,5.25
2023-02-19T04:50:18.442Z,5.18
2023-02-19T04:50:50.049Z,4.60
2023-02-19T04:51:21.832Z,4.13
2023-02-19T04:51:53.455Z,5.10
2023-02-19T04:52:25.250Z,5.25
2023-02-19T04:52:56.821Z,4.78
2023-02-19T04:53:28.497Z,5.30
2023-02-19T04:54:00.164Z,5.05
2023-02-19T04:54:31.804Z,5.95
2023-02-19T04:55:03.502Z,5.45
2023-02-19T04:55:39.167Z,5.35
2023-02-19T04:56:13.173Z,5.18
2023-02-19T04:56:44.744Z,5.95
2023-02-19T04:57:16.479Z,5.82
2023-02-19T04:57:48.227Z,4.28
2023-02-19T04:58:20.669Z,5.43
2023-02-19T04:58:52.291Z,4.82
2023-02-19T04:59:24.067Z,4.88
2023-02-19T04:59:55.721Z,5.15
2023-02-19T05:00:27.407Z,4.93
2023-02-19T05:00:59.136Z,6.20
2023-02-19T05:01:30.867Z,5.20
2023-02-19T05:02:02.867Z,6.28
2023-02-19T05:02:34.478Z,5.65
2023-02-19T05:03:06.225Z,5.13
2023-02-19T05:03:38.147Z,5.00
2023-02-19T05:04:09.793Z,4.40
2023-02-19T05:04:41.681Z,5.50
2023-02-19T05:05:13.355Z,5.28
2023-02-19T05:05:44.976Z,4.25
2023-02-19T05:06:16.804Z,4.50
2023-02-19T05:06:48.398Z,5.40
2023-02-19T05:07:19.973Z,7.07
2023-02-19T05:07:51.751Z,5.38
2023-02-19T05:08:23.587Z,5.53
2023-02-19T05:08:55.190Z,5.25
2023-02-19T05:09:26.762Z,4.85
2023-02-19T05:09:59.835Z,4.72
2023-02-19T05:10:31.567Z,4.57
2023-02-19T05:11:05.731Z,5.05
2023-02-19T05:11:37.528Z,4.95
2023-02-19T05:12:09.134Z,4.30
2023-02-19T05:12:40.881Z,5.20
2023-02-19T05:13:12.539Z,5.00
2023-02-19T05:13:44.388Z,6.57
2023-02-19T05:14:17.237Z,5.05
2023-02-19T05:14:49.250Z,5.13
2023-02-19T05:15:20.832Z,5.85
2023-02-19T05:16:07.387Z,5.15
2023-02-19T05:16:39.012Z,6.05
2023-02-19T05:17:10.658Z,5.60
2023-02-19T05:17:42.349Z,4.57
2023-02-19T05:18:13.982Z,6.03
2023-02-19T05:18:46.763Z,4.97
2023-02-19T05:19:18.556Z,4.70
2023-02-19T05:19:50.214Z,4.40
2023-02-19T05:20:23.087Z,5.20
2023-02-19T05:20:54.765Z,5.25
2023-02-19T05:21:26.605Z,4.43
2023-02-19T05:21:58.217Z,5.18
2023-02-19T05:22:30.382Z,4.60
2023-02-19T05:23:01.994Z,5.53
2023-02-19T05:23:33.869Z,5.35
2023-02-19T05:24:05.601Z,5.55
2023-02-19T05:24:37.212Z,4.47
2023-02-19T05:25:08.872Z,5.30
2023-02-19T05:25:43.225Z,6.35
2023-02-19T05:26:18.853Z,5.35
2023-02-19T05:26:51.143Z,6.50
2023-02-19T05:27:22.804Z,6.80
2023-02-19T05:28:14.352Z,6.28
2023-02-19T05:28:47.613Z,6.22
2023-02-19T05:29:19.479Z,7.95
2023-02-19T05:29:51.097Z,5.68
2023-02-19T05:30:22.869Z,7.78
2023-02-19T05:30:56.620Z,6.47
2023-02-19T05:31:28.963Z,6.13
2023-02-19T05:32:00.755Z,6.15
2023-02-19T05:32:34.566Z,7.30
2023-02-19T05:33:06.210Z,5.63
2023-02-19T05:33:38.180Z,5.70
2023-02-19T05:34:09.854Z,6.07
2023-02-19T05:34:41.449Z,5.68
2023-02-19T05:35:13.075Z,5.90
2023-02-19T05:35:47.774Z,5.63
2023-02-19T05:36:22.067Z,6.30
2023-02-19T05:36:54.301Z,6.22
2023-02-19T05:37:25.872Z,5.78
2023-02-19T05:37:57.449Z,5.70
2023-02-19T05:38:29.022Z,5.72
2023-02-19T05:39:00.796Z,6.25
2023-02-19T05:39:32.383Z,5.30
2023-02-19T05:40:04.335Z,5.63
2023-02-19T05:40:36.644Z,6.70
2023-02-19T05:41:20.439Z,5.80
2023-02-19T05:41:52.155Z,5.78
2023-02-19T05:42:23.742Z,5.50
2023-02-19T05:42:55.331Z,5.38
2023-02-19T05:43:27.002Z,5.55
2023-02-19T05:43:59.001Z,6.28
2023-02-19T05:44:30.639Z,6.03
2023-02-19T05:45:02.313Z,5.22
2023-02-19T05:45:35.042Z,5.25
2023-02-19T05:46:07.760Z,6.28
2023-02-19T05:46:39.455Z,5.50
2023-02-19T05:47:11.096Z,5.25
2023-02-19T05:47:42.721Z,5.88
2023-02-19T05:48:14.488Z,5.13
2023-02-19T05:48:47.545Z,5.45
2023-02-19T05:49:19.167Z,5.30
2023-02-19T05:49:50.777Z,4.93
2023-02-19T05:50:22.411Z,5.07
2023-02-19T05:50:54.071Z,5.50
2023-02-19T05:51:27.169Z,5.30
2023-02-19T05:51:58.944Z,6.07
2023-02-19T05:52:30.556Z,5.28
2023-02-19T05:53:05.756Z,6.65
2023-02-19T05:53:38.176Z,6.65
2023-02-19T05:54:10.205Z,5.88
2023-02-19T05:54:41.922Z,5.78
2023-02-19T05:55:13.531Z,5.93
2023-02-19T05:55:45.136Z,5.10
2023-02-19T05:56:25.765Z,6.10
2023-02-19T05:56:57.813Z,5.40
2023-02-19T05:57:29.527Z,5.93
2023-02-19T05:58:01.552Z,5.35
2023-02-19T05:58:33.152Z,6.45
2023-02-19T05:59:18.102Z,6.38
2023-02-19T05:59:49.718Z,5.93
2023-02-19T06:00:21.792Z,6.68
2023-02-19T06:00:53.925Z,5.95
2023-02-19T06:01:27.897Z,5.50
2023-02-19T06:01:59.695Z,6.18
2023-02-19T06:02:32.806Z,8.15
2023-02-19T06:03:04.570Z,5.88
2023-02-19T06:03:36.208Z,6.40
2023-02-19T06:04:10.446Z,6.20
2023-02-19T06:04:42.055Z,6.45
2023-02-19T06:05:13.996Z,6.35
2023-02-19T06:05:45.657Z,7.50
2023-02-19T06:06:19.429Z,6.75
2023-02-19T06:06:51.156Z,8.20
2023-02-19T06:07:22.867Z,9.95
2023-02-19T06:07:54.536Z,11.77
2023-02-19T06:08:26.129Z,9.30
2023-02-19T06:08:58.136Z,6.95
2023-02-19T06:09:29.758Z,8.57
2023-02-19T06:10:01.591Z,12.65
2023-02-19T06:10:33.272Z,20.92
2023-02-19T06:11:05.102Z,19.58
2023-02-19T06:11:37.728Z,9.45
2023-02-19T06:12:09.309Z,10.07
2023-02-19T06:12:40.940Z,11.80
2023-02-19T06:13:12.783Z,9.70
2023-02-19T06:13:44.517Z,10.27
2023-02-19T06:14:16.195Z,8.77
2023-02-19T06:14:48.128Z,10.63
2023-02-19T06:15:20.167Z,9.95
2023-02-19T06:15:51.793Z,9.85
2023-02-19T06:16:23.859Z,9.80
2023-02-19T06:16:55.516Z,8.00
2023-02-19T06:17:27.152Z,9.40
2023-02-19T06:17:58.836Z,7.15
2023-02-19T06:18:30.499Z,11.75
2023-02-19T06:19:04.058Z,8.05
2023-02-19T06:19:35.662Z,9.02
2023-02-19T06:20:08.057Z,9.07
2023-02-19T06:20:39.961Z,7.75
2023-02-19T06:21:12.605Z,7.55
2023-02-19T06:21:44.508Z,10.82
2023-02-19T06:22:16.745Z,9.77
2023-02-19T06:22:50.713Z,8.63
2023-02-19T06:23:22.300Z,10.48
2023-02-19T06:23:54.288Z,8.20
2023-02-19T06:24:25.898Z,9.45
2023-02-19T06:24:57.740Z,8.90
2023-02-19T06:25:29.415Z,9.27
2023-02-19T06:26:21.856Z,7.85
2023-02-19T06:26:53.506Z,12.25
2023-02-19T06:27:25.186Z,8.82
2023-02-19T06:27:56.873Z,9.40
2023-02-19T06:28:28.489Z,8.43
2023-02-19T06:29:00.232Z,9.10
2023-02-19T06:29:32.652Z,7.95
2023-02-19T06:30:04.700Z,7.40
2023-02-19T06:30:37.026Z,8.65
2023-02-19T06:31:10.261Z,7.80
2023-02-19T06:31:42.224Z,7.30
2023-02-19T06:32:13.999Z,8.65
2023-02-19T06:32:45.714Z,7.30
2023-02-19T06:33:17.296Z,8.35
2023-02-19T06:33:50.717Z,7.95
2023-02-19T06:34:22.460Z,7.60
2023-02-19T06:34:54.090Z,8.45
2023-02-19T06:35:25.731Z,8.73
2023-02-19T06:36:02.343Z,8.20
2023-02-19T06:36:34.511Z,7.90
2023-02-19T06:37:06.166Z,7.45
2023-02-19T06:37:37.778Z,8.32
2023-02-19T06:38:09.431Z,15.15
2023-02-19T06:38:41.455Z,10.70
2023-02-19T06:39:13.161Z,11.20
2023-02-19T06:39:45.050Z,8.68
2023-02-19T06:40:16.921Z,9.20
2023-02-19T06:40:48.560Z,11.02
2023-02-19T06:41:20.237Z,8.90
2023-02-19T06:41:54.768Z,9.38
2023-02-19T06:42:26.418Z,8.85
2023-02-19T06:42:58.052Z,8.82
2023-02-19T06:43:31.720Z,8.75
2023-02-19T06:44:03.426Z,8.38
2023-02-19T06:44:35.188Z,9.40
2023-02-19T06:45:07.056Z,9.88
2023-02-19T06:45:38.681Z,12.38
2023-02-19T06:46:12.295Z,11.70
2023-02-19T06:46:43.938Z,11.07
2023-02-19T06:47:15.559Z,8.25
2023-02-19T06:47:47.165Z,10.13
2023-02-19T06:48:18.781Z,9.93
2023-02-19T06:48:51.087Z,10.95
2023-02-19T06:49:22.933Z,12.50
2023-02-19T06:49:54.560Z,11.07
2023-02-19T06:50:26.210Z,11.02
2023-02-19T06:50:57.907Z,12.48
2023-02-19T06:51:29.916Z,15.57
2023-02-19T06:52:03.689Z,14.30
2023-02-19T06:52:35.332Z,11.27
2023-02-19T06:53:07.010Z,11.43
2023-02-19T06:53:38.786Z,11.65
2023-02-19T06:54:10.378Z,12.30
2023-02-19T06:54:41.988Z,12.88
2023-02-19T06:55:13.620Z,14.15
2023-02-19T06:55:45.324Z,12.80
2023-02-19T06:56:33.256Z,13.18
2023-02-19T06:57:05.048Z,19.05
2023-02-19T06:57:36.624Z,21.98
2023-02-19T06:58:08.399Z,18.90
2023-02-19T06:58:39.980Z,16.52
2023-02-19T06:59:19.004Z,19.60
2023-02-19T06:59:50.614Z,19.42
2023-02-19T07:00:22.339Z,22.05
2023-02-19T07:00:54.486Z,23.33
2023-02-19T07:01:27.512Z,23.17
2023-02-19T07:01:59.217Z,28.35
2023-02-19T07:02:30.947Z,21.67
2023-02-19T07:03:05.231Z,19.88
2023-02-19T07:03:37.151Z,22.67
2023-02-19T07:04:09.349Z,22.92
2023-02-19T07:04:40.987Z,21.77
2023-02-19T07:05:12.685Z,18.08
2023-02-19T07:05:44.418Z,20.25
2023-02-19T07:06:16.159Z,20.63
2023-02-19T07:06:47.858Z,19.55
2023-02-19T07:07:19.477Z,20.15
2023-02-19T07:07:51.176Z,19.17
2023-02-19T07:08:22.744Z,21.42
2023-02-19T07:08:58.461Z,21.65
2023-02-19T07:09:30.185Z,20.02
2023-02-19T07:10:01.778Z,18.38
2023-02-19T07:10:33.515Z,19.42
2023-02-19T07:11:05.373Z,19.50
2023-02-19T07:11:39.054Z,18.80
2023-02-19T07:12:10.678Z,20.38
2023-02-19T07:12:42.317Z,19.42
2023-02-19T07:13:13.912Z,19.55
2023-02-19T07:13:45.875Z,21.27
2023-02-19T07:14:17.886Z,19.58
2023-02-19T07:14:49.462Z,20.80
2023-02-19T07:15:21.039Z,20.55
2023-02-19T07:15:58.015Z,20.30
2023-02-19T07:16:29.934Z,21.75
2023-02-19T07:17:01.534Z,20.85
2023-02-19T07:17:34.782Z,20.20
2023-02-19T07:18:10.402Z,20.55
2023-02-19T07:18:42.482Z,21.55
2023-02-19T07:19:15.286Z,20.13
2023-02-19T07:19:46.906Z,20.77
2023-02-19T07:20:18.627Z,20.48
2023-02-19T07:20:50.252Z,20.92
2023-02-19T07:21:21.864Z,22.10
2023-02-19T07:21:53.664Z,19.77
2023-02-19T07:22:25.261Z,13.40
2023-02-19T07:22:57.613Z,13.70
2023-02-19T07:23:29.320Z,17.80
2023-02-19T07:24:00.916Z,14.90
2023-02-19T07:24:32.553Z,9.48
2023-02-19T07:25:04.273Z,5.65
2023-02-19T07:25:37.806Z,5.97
2023-02-19T07:26:11.638Z,3.90
2023-02-19T07:26:43.299Z,4.47
2023-02-19T07:27:14.853Z,4.28
2023-02-19T07:27:46.459Z,3.67
2023-02-19T07:28:18.561Z,3.75
2023-02-19T07:28:51.154Z,3.80
2023-02-19T07:29:22.796Z,3.80
2023-02-19T07:29:54.393Z,3.63
2023-02-19T07:30:26.210Z,4.07
2023-02-19T07:31:02.182Z,3.45
2023-02-19T07:31:33.999Z,3.75
2023-02-19T07:32:05.719Z,3.40
2023-02-19T07:32:41.302Z,4.22
2023-02-19T07:33:12.941Z,3.42
2023-02-19T07:33:45.588Z,3.35
2023-02-19T07:34:17.256Z,3.80
2023-02-19T07:34:49.101Z,3.75
2023-02-19T07:35:20.685Z,4.25
2023-02-19T07:35:52.500Z,3.92
2023-02-19T07:36:24.906Z,3.30
2023-02-19T07:36:56.606Z,3.85
2023-02-19T07:37:28.285Z,3.55
2023-02-19T07:37:59.893Z,3.25
2023-02-19T07:38:31.550Z,3.38
2023-02-19T07:39:03.876Z,4.22
2023-02-19T07:39:35.536Z,3.20
2023-02-19T07:40:07.732Z,3.40
2023-02-19T07:40:39.517Z,3.50
2023-02-19T07:41:11.457Z,3.20
2023-02-19T07:41:43.230Z,3.60
2023-02-19T07:42:14.933Z,3.50
2023-02-19T07:42:46.514Z,3.70
2023-02-19T07:43:18.674Z,5.75
2023-02-19T07:43:50.478Z,3.45
2023-02-19T07:44:22.556Z,3.80
2023-02-19T07:44:54.147Z,3.40